createdAt,value
2023-02-23T00:01:55.105Z,62.70
2023-02-23T00:04:24.787Z,65.93
2023-02-23T00:06:53.545Z,64.50
2023-02-23T00:09:26.016Z,57.70
2023-02-23T00:11:56.138Z,66.73
2023-02-23T00:14:27.952Z,65.67
2023-02-23T00:16:56.082Z,64.43
2023-02-23T00:19:25.755Z,64.30
2023-02-23T00:21:54.557Z,64.00
2023-02-23T00:24:26.998Z,60.60
2023-02-23T00:26:55.481Z,67.00
2023-02-23T00:29:25.622Z,66.73
2023-02-23T00:31:56.315Z,69.37
2023-02-23T00:34:24.558Z,65.40
2023-02-23T00:36:55.267Z,65.73
2023-02-23T00:39:28.885Z,58.33
2023-02-23T00:42:02.804Z,69.30
2023-02-23T00:44:32.299Z,60.90
2023-02-23T00:47:00.616Z,69.17
2023-02-23T00:49:28.881Z,70.63
2023-02-23T00:51:56.990Z,70.43
2023-02-23T00:54:26.597Z,68.63
2023-02-23T00:56:57.661Z,63.53
2023-02-23T00:59:25.712Z,60.43
2023-02-23T01:01:53.944Z,61.73
2023-02-23T01:04:23.330Z,65.50
2023-02-23T01:06:51.476Z,60.57
2023-02-23T01:09:28.100Z,59.97
2023-02-23T01:12:01.508Z,59.37
2023-02-23T01:14:31.240Z,57.70
2023-02-23T01:16:59.920Z,57.97
2023-02-23T01:19:28.556Z,55.37
2023-02-23T01:21:56.771Z,55.37
2023-02-23T01:24:24.971Z,62.20
2023-02-23T01:26:53.773Z,53.23
2023-02-23T01:29:23.218Z,57.57
2023-02-23T01:31:52.170Z,58.47
2023-02-23T01:34:21.731Z,60.20
2023-02-23T01:36:50.223Z,57.93
2023-02-23T01:39:20.980Z,55.60
2023-02-23T01:41:51.780Z,52.97
2023-02-23T01:44:58.494Z,54.70
2023-02-23T01:47:29.991Z,56.47
2023-02-23T01:49:58.529Z,60.40
2023-02-23T01:52:27.517Z,59.50
2023-02-23T01:54:57.486Z,58.00
2023-02-23T01:57:27.151Z,56.97
2023-02-23T01:59:56.509Z,62.97
2023-02-23T02:02:33.867Z,58.77
2023-02-23T02:05:08.413Z,63.63
2023-02-23T02:07:39.592Z,60.17
2023-02-23T02:10:38.621Z,66.97
2023-02-23T02:13:09.072Z,61.23
2023-02-23T02:15:44.077Z,64.57
2023-02-23T02:18:19.158Z,58.87
2023-02-23T02:21:23.227Z,56.33
2023-02-23T02:24:24.199Z,59.83
2023-02-23T02:27:11.603Z,60.63
2023-02-23T02:30:10.682Z,57.30
2023-02-23T02:33:16.657Z,63.83
2023-02-23T02:36:13.906Z,62.73
2023-02-23T02:38:53.995Z,68.47
2023-02-23T02:41:28.217Z,74.23
2023-02-23T02:44:03.299Z,63.67
2023-02-23T02:46:36.108Z,61.90
2023-02-23T02:49:07.835Z,63.40
2023-02-23T02:51:44.695Z,60.63
2023-02-23T02:54:24.415Z,63.90
2023-02-23T02:56:57.518Z,73.27
2023-02-23T02:59:45.517Z,67.97
2023-02-23T03:02:35.424Z,74.03
2023-02-23T03:05:26.449Z,79.33
2023-02-23T03:08:25.907Z,77.27
2023-02-23T03:11:18.386Z,75.47
2023-02-23T03:14:15.674Z,76.17
2023-02-23T03:17:11.227Z,74.20
2023-02-23T03:20:06.737Z,77.23
2023-02-23T03:22:58.195Z,84.20
2023-02-23T03:25:51.103Z,80.87
2023-02-23T03:28:43.378Z,75.67
2023-02-23T03:31:35.031Z,73.70
2023-02-23T03:34:30.420Z,78.77
2023-02-23T03:37:23.040Z,79.80
2023-02-23T03:40:16.021Z,81.20
2023-02-23T03:43:03.202Z,68.43
2023-02-23T03:45:50.822Z,75.23
2023-02-23T03:48:39.204Z,72.07
2023-02-23T03:51:30.651Z,71.87
2023-02-23T03:54:23.590Z,72.10
2023-02-23T03:57:12.158Z,72.37
2023-02-23T04:00:02.685Z,75.40
2023-02-23T04:02:53.151Z,76.00
2023-02-23T04:05:41.110Z,78.23
2023-02-23T04:08:30.709Z,73.80
2023-02-23T04:11:21.181Z,73.83
2023-02-23T04:13:54.418Z,73.27
2023-02-23T04:16:22.403Z,76.40
2023-02-23T04:18:52.020Z,73.63
2023-02-23T04:21:20.427Z,80.30
2023-02-23T04:23:48.998Z,74.63
2023-02-23T04:26:17.104Z,75.17
2023-02-23T04:28:45.097Z,82.67
2023-02-23T04:31:13.112Z,76.07
2023-02-23T04:33:41.111Z,76.60
2023-02-23T04:36:10.706Z,72.20
2023-02-23T04:38:38.779Z,67.30
2023-02-23T04:41:06.786Z,70.27
2023-02-23T04:43:34.838Z,69.43
2023-02-23T04:46:03.003Z,69.63
2023-02-23T04:48:31.021Z,69.33
2023-02-23T04:50:59.186Z,69.93
2023-02-23T04:53:28.624Z,72.80
2023-02-23T04:55:56.712Z,73.90
2023-02-23T04:58:24.740Z,67.50
2023-02-23T05:00:52.766Z,70.73
2023-02-23T05:03:20.850Z,67.67
2023-02-23T05:05:48.837Z,66.73
2023-02-23T05:08:16.896Z,65.27
2023-02-23T05:10:47.446Z,67.27
2023-02-23T05:13:16.260Z,64.10
2023-02-23T05:15:44.309Z,73.77
2023-02-23T05:18:12.625Z,72.20
2023-02-23T05:20:44.732Z,69.83
2023-02-23T05:23:13.186Z,71.87
2023-02-23T05:25:41.205Z,75.97
2023-02-23T05:28:10.651Z,74.53
2023-02-23T05:30:39.105Z,71.77
2023-02-23T05:33:07.142Z,74.00
2023-02-23T05:35:35.623Z,71.63
2023-02-23T05:38:03.629Z,73.07
2023-02-23T05:40:32.235Z,72.60
2023-02-23T05:43:00.877Z,78.53
2023-02-23T05:45:30.411Z,76.10
2023-02-23T05:47:58.850Z,86.23
2023-02-23T05:50:27.388Z,74.53
2023-02-23T05:52:55.555Z,77.10
2023-02-23T05:55:23.585Z,86.80
2023-02-23T05:57:51.676Z,80.77
2023-02-23T06:00:20.430Z,79.90
2023-02-23T06:02:52.299Z,82.47
2023-02-23T06:05:20.607Z,81.53
2023-02-23T06:07:48.608Z,81.80
2023-02-23T06:10:16.783Z,77.90
2023-02-23T06:12:44.864Z,81.07
2023-02-23T06:15:13.018Z,81.00
2023-02-23T06:17:41.044Z,83.77
2023-02-23T06:20:14.249Z,78.10
2023-02-23T06:22:42.887Z,82.10
2023-02-23T06:25:13.377Z,85.03
2023-02-23T06:27:42.193Z,87.40
2023-02-23T06:30:12.087Z,89.27
2023-02-23T06:32:40.408Z,81.20
2023-02-23T06:35:13.429Z,86.00
2023-02-23T06:37:41.552Z,89.40
2023-02-23T06:40:10.851Z,86.00
2023-02-23T06:42:38.897Z,84.67
2023-02-23T06:45:07.882Z,83.47
2023-02-23T06:47:35.870Z,84.30
2023-02-23T06:50:04.235Z,90.60
2023-02-23T06:52:34.128Z,85.27
2023-02-23T06:55:02.210Z,85.13
2023-02-23T06:57:30.383Z,80.33
2023-02-23T06:59:58.378Z,83.43
2023-02-23T07:02:26.378Z,83.10
2023-02-23T07:04:54.416Z,86.30
2023-02-23T07:07:22.830Z,81.87
2023-02-23T07:09:52.188Z,81.50
2023-02-23T07:12:21.031Z,83.20
2023-02-23T07:14:49.154Z,76.60
2023-02-23T07:17:17.816Z,78.10
2023-02-23T07:19:45.812Z,90.37
2023-02-23T07:22:13.850Z,80.60
2023-02-23T07:24:41.943Z,80.83
2023-02-23T07:27:11.353Z,80.67
2023-02-23T07:29:39.381Z,80.30
2023-02-23T07:32:07.559Z,77.43
2023-02-23T07:34:37.115Z,74.10
2023-02-23T07:37:05.117Z,76.97
2023-02-23T07:39:33.161Z,76.30
2023-02-23T07:42:01.319Z,66.17
2023-02-23T07:44:32.681Z,71.10
2023-02-23T07:47:00.748Z,69.90
2023-02-23T07:49:30.453Z,68.20
2023-02-23T07:51:58.495Z,67.47
2023-02-23T07:54:26.600Z,65.87
2023-02-23T07:56:54.891Z,62.90
2023-02-23T07:59:22.869Z,63.07
2023-02-23T08:01:52.730Z,56.77
2023-02-23T08:04:20.765Z,59.77
2023-02-23T08:06:48.808Z,59.67
2023-02-23T08:09:16.835Z,58.57
2023-02-23T08:11:45.100Z,55.27
2023-02-23T08:14:13.477Z,57.20
2023-02-23T08:16:41.701Z,58.73
2023-02-23T08:19:11.620Z,62.40
2023-02-23T08:21:39.607Z,65.30
2023-02-23T08:24:08.394Z,63.87
2023-02-23T08:26:37.966Z,65.47
2023-02-23T08:29:06.504Z,60.00
2023-02-23T08:31:35.034Z,63.80
2023-02-23T08:34:03.652Z,62.70
2023-02-23T08:36:33.090Z,61.00
2023-02-23T08:39:02.278Z,55.20
2023-02-23T08:41:30.340Z,57.03
2023-02-23T08:44:00.315Z,53.93
2023-02-23T08:46:28.622Z,54.73
2023-02-23T08:48:57.388Z,55.93
2023-02-23T08:51:25.921Z,62.90
2023-02-23T08:53:57.220Z,57.00
2023-02-23T08:56:27.137Z,57.90
2023-02-23T08:58:55.332Z,58.23
2023-02-23T09:01:23.600Z,52.33
2023-02-23T09:03:52.166Z,59.33
2023-02-23T09:06:24.137Z,62.40
2023-02-23T09:08:52.573Z,63.83
2023-02-23T09:11:22.287Z,60.40
2023-02-23T09:13:50.671Z,60.67
2023-02-23T09:16:19.097Z,60.23
2023-02-23T09:18:47.730Z,60.30
2023-02-23T09:21:21.092Z,59.50
2023-02-23T09:23:51.410Z,61.20
2023-02-23T09:26:24.803Z,59.17
2023-02-23T09:28:53.093Z,62.63
2023-02-23T09:31:24.689Z,60.77
2023-02-23T09:33:53.619Z,59.97
2023-02-23T09:36:24.174Z,61.53
2023-02-23T09:38:56.446Z,53.63
2023-02-23T09:42:01.346Z,52.77
2023-02-23T09:44:46.277Z,46.40
2023-02-23T09:47:29.573Z,47.77
2023-02-23T09:50:00.920Z,52.43
2023-02-23T09:52:44.828Z,47.80
2023-02-23T09:55:15.185Z,48.03
2023-02-23T09:57:47.936Z,50.63
2023-02-23T10:00:21.237Z,50.90
2023-02-23T10:03:18.887Z,55.80
2023-02-23T10:05:53.306Z,48.13
2023-02-23T10:08:37.666Z,45.40
2023-02-23T10:11:13.254Z,44.80
2023-02-23T10:13:53.970Z,47.40
2023-02-23T10:16:31.439Z,45.53
2023-02-23T10:19:07.101Z,46.67
2023-02-23T10:21:39.939Z,47.10
2023-02-23T10:24:13.639Z,43.57
2023-02-23T10:26:46.289Z,42.50
2023-02-23T10:29:27.447Z,40.63
2023-02-23T10:32:01.070Z,41.53
2023-02-23T10:34:30.032Z,42.70
2023-02-23T10:37:01.825Z,41.40
2023-02-23T10:39:31.669Z,40.60
2023-02-23T10:42:03.981Z,41.30
2023-02-23T10:44:36.072Z,44.50
2023-02-23T10:47:10.298Z,41.23
2023-02-23T10:49:44.662Z,38.13
2023-02-23T10:52:14.498Z,39.70
2023-02-23T10:54:45.926Z,37.80
2023-02-23T10:57:21.189Z,43.73
2023-02-23T11:00:33.026Z,49.17
2023-02-23T11:03:03.290Z,49.17
2023-02-23T11:05:45.383Z,44.20
2023-02-23T11:08:22.212Z,52.90
2023-02-23T11:11:01.848Z,50.30
2023-02-23T11:13:37.972Z,56.27
2023-02-23T11:16:13.076Z,51.73
2023-02-23T11:18:43.526Z,46.03
2023-02-23T11:21:14.360Z,45.30
2023-02-23T11:23:43.008Z,47.07
2023-02-23T11:26:28.453Z,51.00
2023-02-23T11:28:59.086Z,43.10
2023-02-23T11:31:34.682Z,47.07
2023-02-23T11:34:05.518Z,49.93
2023-02-23T11:36:35.702Z,45.57
2023-02-23T11:39:08.281Z,51.50
2023-02-23T11:41:37.619Z,50.07
2023-02-23T11:44:06.610Z,45.97
2023-02-23T11:46:39.876Z,50.00
2023-02-23T11:49:15.936Z,54.97
2023-02-23T11:51:50.183Z,46.17
2023-02-23T11:54:23.670Z,47.07
2023-02-23T11:56:55.208Z,53.57
2023-02-23T11:59:29.885Z,56.83
2023-02-23T12:02:07.528Z,54.80
2023-02-23T12:04:38.495Z,60.47
2023-02-23T12:07:38.792Z,56.83
2023-02-23T12:10:15.595Z,59.67
2023-02-23T12:12:52.856Z,61.60
2023-02-23T12:15:31.051Z,59.90
2023-02-23T12:18:05.330Z,65.53
2023-02-23T12:20:38.606Z,62.50
2023-02-23T12:23:11.220Z,73.70
2023-02-23T12:25:47.333Z,67.07
2023-02-23T12:28:26.085Z,67.50
2023-02-23T12:30:59.782Z,60.83
2023-02-23T12:33:35.084Z,66.00
2023-02-23T12:36:20.655Z,62.50
2023-02-23T12:38:57.251Z,75.40
2023-02-23T12:41:36.429Z,62.53
2023-02-23T12:44:19.251Z,59.73
2023-02-23T12:46:53.220Z,60.20
2023-02-23T12:49:31.415Z,62.30
2023-02-23T12:52:06.760Z,60.90
2023-02-23T12:54:35.581Z,64.50
2023-02-23T12:57:12.018Z,58.27
2023-02-23T13:00:01.838Z,64.50
2023-02-23T13:02:34.838Z,66.87
2023-02-23T13:05:24.593Z,62.60
2023-02-23T13:08:12.858Z,62.97
2023-02-23T13:10:49.839Z,67.43
2023-02-23T13:13:32.540Z,72.03
2023-02-23T13:16:08.576Z,62.20
2023-02-23T13:18:43.590Z,59.40
2023-02-23T13:21:18.866Z,62.83
2023-02-23T13:24:00.039Z,59.47
2023-02-23T13:26:38.486Z,56.13
2023-02-23T13:29:13.658Z,60.10
2023-02-23T13:31:44.907Z,64.90
2023-02-23T13:34:18.648Z,58.80
2023-02-23T13:36:50.514Z,60.43
2023-02-23T13:39:47.870Z,63.53
2023-02-23T13:42:31.285Z,64.13
2023-02-23T13:45:14.449Z,64.00
2023-02-23T13:47:49.156Z,60.57
2023-02-23T13:50:23.658Z,57.50
2023-02-23T13:52:58.371Z,63.67
2023-02-23T13:55:49.858Z,64.70
2023-02-23T13:58:26.896Z,63.50
2023-02-23T14:01:05.729Z,66.97
2023-02-23T14:03:42.393Z,58.60
2023-02-23T14:06:15.240Z,50.83
2023-02-23T14:08:52.281Z,51.93
2023-02-23T14:11:45.019Z,48.23
2023-02-23T14:14:17.269Z,45.70
2023-02-23T14:17:05.667Z,43.30
2023-02-23T14:19:37.985Z,42.97
2023-02-23T14:22:11.125Z,41.47
2023-02-23T14:24:39.674Z,38.73
2023-02-23T14:27:39.867Z,36.63
2023-02-23T14:30:49.801Z,41.30
2023-02-23T14:33:37.268Z,41.13
2023-02-23T14:36:53.188Z,39.10
2023-02-23T14:39:26.926Z,42.13
2023-02-23T14:41:57.017Z,40.23
2023-02-23T14:44:31.112Z,41.90
2023-02-23T14:47:04.312Z,39.23
2023-02-23T14:49:37.877Z,39.80
2023-02-23T14:52:10.593Z,35.70
2023-02-23T14:54:40.234Z,34.73
2023-02-23T14:57:20.632Z,33.70
2023-02-23T14:59:54.746Z,33.87
2023-02-23T15:02:25.182Z,39.53
2023-02-23T15:04:53.930Z,32.40
2023-02-23T15:07:32.170Z,35.57
2023-02-23T15:10:02.342Z,35.30
2023-02-23T15:12:35.679Z,34.47
2023-02-23T15:15:06.704Z,31.03
2023-02-23T15:17:35.898Z,33.70
2023-02-23T15:20:16.170Z,34.07
2023-02-23T15:22:49.647Z,35.90
2023-02-23T15:25:20.910Z,38.20
2023-02-23T15:27:49.457Z,32.73
2023-02-23T15:30:23.686Z,35.27
2023-02-23T15:33:01.370Z,34.23
2023-02-23T15:35:30.990Z,36.10
2023-02-23T15:38:14.101Z,30.10
2023-02-23T15:40:57.031Z,70.47
2023-02-23T15:43:29.508Z,33.97
2023-02-23T15:46:04.294Z,34.57
2023-02-23T15:48:45.913Z,37.00
2023-02-23T15:51:27.751Z,33.30
2023-02-23T15:53:57.593Z,37.10
2023-02-23T15:56:28.409Z,37.87
2023-02-23T15:58:59.381Z,41.50
2023-02-23T16:01:30.261Z,42.90
2023-02-23T16:04:02.356Z,38.30
2023-02-23T16:06:35.798Z,37.30
2023-02-23T16:09:21.298Z,44.00
2023-02-23T16:11:52.224Z,41.10
2023-02-23T16:14:21.697Z,37.93
2023-02-23T16:17:08.414Z,43.80
2023-02-23T16:19:40.947Z,42.87
2023-02-23T16:22:21.096Z,42.20
2023-02-23T16:24:58.851Z,44.73
2023-02-23T16:27:29.292Z,45.83
2023-02-23T16:30:00.309Z,45.83
2023-02-23T16:32:35.833Z,47.43
2023-02-23T16:35:10.709Z,48.23
2023-02-23T16:38:03.195Z,47.63
2023-02-23T16:40:33.442Z,48.07
2023-02-23T16:43:01.519Z,47.60
2023-02-23T16:45:29.910Z,53.50
2023-02-23T16:48:02.313Z,53.67
2023-02-23T16:50:32.533Z,51.67
2023-02-23T16:53:02.118Z,50.20
2023-02-23T16:55:39.162Z,62.70
2023-02-23T16:58:11.873Z,54.17
2023-02-23T17:00:39.957Z,56.27
2023-02-23T17:03:11.698Z,54.77
2023-02-23T17:05:40.049Z,51.23
2023-02-23T17:08:10.538Z,53.50
2023-02-23T17:10:41.322Z,53.40
2023-02-23T17:13:17.776Z,50.30
2023-02-23T17:15:51.721Z,49.40
2023-02-23T17:18:20.399Z,43.30
2023-02-23T17:20:48.706Z,50.57
2023-02-23T17:23:16.728Z,42.13
2023-02-23T17:25:46.131Z,50.57
2023-02-23T17:28:14.484Z,47.97
2023-02-23T17:30:44.475Z,43.47
2023-02-23T17:33:12.756Z,44.03
2023-02-23T17:35:41.002Z,54.33
2023-02-23T17:38:09.611Z,40.83
2023-02-23T17:40:38.012Z,47.87
2023-02-23T17:43:08.642Z,42.23
2023-02-23T17:45:37.073Z,45.73
2023-02-23T17:48:05.433Z,41.50
2023-02-23T17:50:33.575Z,48.50
2023-02-23T17:53:01.627Z,42.50
2023-02-23T17:55:30.040Z,47.40
2023-02-23T17:57:58.141Z,42.90
2023-02-23T18:00:28.686Z,335.03
2023-02-23T18:02:57.150Z,62.30
2023-02-23T18:05:25.266Z,38.37
2023-02-23T18:07:53.329Z,38.90
2023-02-23T18:10:25.325Z,34.10
2023-02-23T18:12:53.717Z,36.90
2023-02-23T18:15:22.456Z,35.60
2023-02-23T18:17:54.627Z,39.00
2023-02-23T18:20:23.102Z,37.10
2023-02-23T18:22:51.383Z,37.43
2023-02-23T18:25:26.618Z,36.17
2023-02-23T18:27:58.563Z,35.27
2023-02-23T18:30:27.145Z,37.23
2023-02-23T18:33:00.477Z,36.03
2023-02-23T18:35:28.787Z,37.10
2023-02-23T18:37:56.996Z,36.40
2023-02-23T18:40:25.827Z,34.40
2023-02-23T18:42:54.029Z,33.60
2023-02-23T18:45:22.248Z,35.43
2023-02-23T18:47:51.516Z,32.03
2023-02-23T18:50:21.998Z,37.77
2023-02-23T18:52:51.285Z,39.20
2023-02-23T18:55:22.062Z,31.50
2023-02-23T18:57:50.861Z,36.03
2023-02-23T19:00:20.460Z,43.60
2023-02-23T19:02:49.396Z,38.40
2023-02-23T19:05:21.050Z,43.83
2023-02-23T19:07:51.586Z,40.03
2023-02-23T19:10:19.942Z,35.60
2023-02-23T19:12:49.543Z,38.60
2023-02-23T19:15:17.948Z,48.63
2023-02-23T19:17:47.420Z,54.53
2023-02-23T19:20:15.867Z,40.43
2023-02-23T19:22:45.467Z,42.40
2023-02-23T19:25:15.343Z,41.90
2023-02-23T19:27:43.834Z,41.93
2023-02-23T19:30:14.303Z,41.07
2023-02-23T19:32:43.144Z,45.53
2023-02-23T19:35:14.707Z,39.17
2023-02-23T19:37:48.593Z,44.83
2023-02-23T19:40:20.764Z,46.07
2023-02-23T19:42:49.569Z,44.67
2023-02-23T19:45:18.627Z,42.70
2023-02-23T19:47:47.067Z,41.50
2023-02-23T19:50:17.734Z,40.20
2023-02-23T19:52:46.645Z,41.90
2023-02-23T19:55:17.057Z,38.97
2023-02-23T19:57:45.187Z,38.50
2023-02-23T20:00:14.517Z,38.80
2023-02-23T20:02:43.608Z,36.40
2023-02-23T20:05:13.216Z,32.73
2023-02-23T20:07:41.710Z,37.47
2023-02-23T20:10:13.884Z,36.53
2023-02-23T20:12:43.835Z,34.80
2023-02-23T20:15:14.707Z,34.20
2023-02-23T20:17:42.867Z,35.00
2023-02-23T20:20:12.415Z,41.70
2023-02-23T20:22:42.042Z,34.43
2023-02-23T20:25:15.959Z,37.60
2023-02-23T20:27:45.946Z,29.87
2023-02-23T20:30:15.341Z,30.13
2023-02-23T20:32:43.627Z,34.17
2023-02-23T20:35:14.065Z,29.13
2023-02-23T20:37:42.682Z,29.27
2023-02-23T20:40:16.987Z,29.73
2023-02-23T20:42:48.662Z,20.70
2023-02-23T20:45:19.237Z,25.40
2023-02-23T20:47:51.861Z,26.00
2023-02-23T20:50:21.469Z,25.37
2023-02-23T20:52:50.329Z,30.70
2023-02-23T20:55:19.803Z,28.77
2023-02-23T20:57:49.762Z,25.17
2023-02-23T21:00:31.772Z,23.40
2023-02-23T21:03:01.358Z,19.33
2023-02-23T21:05:32.045Z,27.50
2023-02-23T21:08:01.342Z,28.03
2023-02-23T21:10:32.644Z,31.67
2023-02-23T21:13:02.178Z,27.00
2023-02-23T21:15:30.519Z,38.43
2023-02-23T21:17:59.317Z,27.73
2023-02-23T21:20:28.523Z,25.93
2023-02-23T21:22:56.992Z,28.20
2023-02-23T21:25:27.125Z,26.27
2023-02-23T21:27:55.820Z,27.10
2023-02-23T21:30:28.530Z,30.03
2023-02-23T21:32:57.856Z,27.80
2023-02-23T21:35:26.059Z,29.70
2023-02-23T21:37:54.226Z,25.07
2023-02-23T21:40:23.496Z,28.27
2023-02-23T21:42:52.038Z,28.67
2023-02-23T21:45:20.733Z,67.70
2023-02-23T21:47:50.401Z,32.03
2023-02-23T21:50:20.092Z,32.57
2023-02-23T21:52:48.777Z,27.40
2023-02-23T21:55:21.933Z,43.37
2023-02-23T21:57:51.120Z,28.20
2023-02-23T22:00:21.621Z,36.63
2023-02-23T22:02:52.238Z,28.40
2023-02-23T22:05:20.781Z,33.47
2023-02-23T22:07:50.293Z,28.77
2023-02-23T22:10:19.812Z,30.83
2023-02-23T22:12:50.103Z,29.50
2023-02-23T22:15:18.307Z,30.37
2023-02-23T22:17:46.563Z,33.57
2023-02-23T22:20:20.263Z,32.10
2023-02-23T22:22:50.477Z,28.60
2023-02-23T22:25:20.661Z,29.13
2023-02-23T22:27:49.222Z,28.17
2023-02-23T22:30:20.788Z,34.50
2023-02-23T22:32:49.335Z,29.07
2023-02-23T22:35:19.217Z,27.33
2023-02-23T22:37:47.545Z,27.60
2023-02-23T22:40:16.698Z,25.93
2023-02-23T22:42:48.106Z,27.87
2023-02-23T22:45:17.362Z,25.87
2023-02-23T22:47:45.835Z,25.57
2023-02-23T22:50:17.890Z,29.23
2023-02-23T22:52:48.094Z,27.60
2023-02-23T22:55:16.459Z,30.40
2023-02-23T22:57:45.989Z,26.93
2023-02-23T23:00:16.961Z,28.67
2023-02-23T23:02:45.419Z,30.10
2023-02-23T23:05:14.469Z,28.90
2023-02-23T23:07:46.647Z,23.80
2023-02-23T23:10:17.648Z,23.80
2023-02-23T23:12:46.612Z,24.83
2023-02-23T23:15:17.306Z,26.90
2023-02-23T23:17:48.568Z,23.93
2023-02-23T23:20:18.761Z,29.90
2023-02-23T23:22:46.943Z,24.20
2023-02-23T23:25:22.551Z,24.87
2023-02-23T23:27:53.579Z,28.30
2023-02-23T23:30:25.968Z,28.90
2023-02-23T23:32:54.453Z,23.17
2023-02-23T23:35:23.010Z,28.83
2023-02-23T23:37:51.907Z,26.77
2023-02-23T23:40:24.590Z,30.53
2023-02-23T23:42:53.103Z,30.57
2023-02-23T23:45:24.218Z,32.47
2023-02-23T23:47:52.484Z,29.40
2023-02-23T23:50:26.399Z,35.17
2023-02-23T23:52:54.558Z,46.47
2023-02-23T23:55:24.240Z,45.03
2023-02-23T23:57:52.344Z,46.40
